Decatur, Texas
Current Conditions -  °F | °C
As of 7:35 PM on Saturday 25 Oct 2014 (Local Time) from KLUD Reporting Station
Clear Clear  
Wind Chill: 78°   Ceiling: Unl
Heat Index: 79°   Visibility: 10mi
Dew Point: 57°   Wind: 6mph
Humidity: 49%   Direction: 160°SSE
Pressure: 30.06"   Gusts: NA
Location:  33.23°N, 97.59°W
Report Text: KLUD 260035Z AUTO 16005KT 10SM CLR 26/14 A3006 RMK AO2 T02550141
Loading
Personal Weather Stations






























Interactive Weather Map
Tropical Storm Tracking
New forecast layout! Learn more

10-Day Weather Forecast

Advertisements
Track Severe Weather on mobile